createdAt,value
2022-08-22T00:02:17.980Z,100.00
2022-08-22T00:02:49.791Z,100.00
2022-08-22T00:03:00.776Z,100.00
2022-08-22T00:03:09.411Z,100.00
2022-08-22T00:04:56.804Z,100.00
2022-08-22T00:07:48.074Z,100.00
2022-08-22T00:10:25.464Z,100.00
2022-08-22T00:13:15.270Z,100.00
2022-08-22T00:15:58.239Z,100.00
2022-08-22T00:18:37.437Z,100.00
2022-08-22T00:21:54.919Z,100.00
2022-08-22T00:24:48.040Z,100.00
2022-08-22T00:27:20.725Z,100.00
2022-08-22T00:30:11.122Z,100.00
2022-08-22T00:32:59.510Z,100.00
2022-08-22T00:35:40.587Z,100.00
2022-08-22T00:38:30.557Z,100.00
2022-08-22T00:41:21.529Z,100.00
2022-08-22T00:43:57.179Z,100.00
2022-08-22T00:46:32.844Z,100.00
2022-08-22T00:49:32.905Z,100.00
2022-08-22T00:52:38.360Z,100.00
2022-08-22T00:55:34.955Z,100.00
2022-08-22T00:58:32.701Z,100.00
2022-08-22T01:01:06.906Z,100.00
2022-08-22T01:03:48.539Z,100.00
2022-08-22T01:06:14.998Z,100.00
2022-08-22T01:09:05.991Z,100.00
2022-08-22T01:11:44.764Z,100.00
2022-08-22T01:14:36.838Z,100.00
2022-08-22T01:17:25.147Z,100.00
2022-08-22T01:20:22.307Z,100.00
2022-08-22T01:23:26.382Z,100.00
2022-08-22T01:26:36.265Z,100.00
2022-08-22T01:29:27.692Z,100.00
2022-08-22T01:31:58.237Z,100.00
2022-08-22T01:34:52.860Z,100.00
2022-08-22T01:37:43.664Z,100.00
2022-08-22T01:40:35.294Z,100.00
2022-08-22T01:43:59.930Z,100.00
2022-08-22T01:46:50.335Z,100.00
2022-08-22T01:49:39.657Z,100.00
2022-08-22T01:52:28.958Z,100.00
2022-08-22T01:55:22.744Z,100.00
2022-08-22T01:57:56.094Z,100.00
2022-08-22T02:00:34.804Z,100.00
2022-08-22T02:03:19.548Z,100.00
2022-08-22T02:06:07.293Z,100.00
2022-08-22T02:08:46.612Z,100.00
2022-08-22T02:11:35.373Z,100.00
2022-08-22T02:14:30.553Z,100.00
2022-08-22T02:17:24.936Z,100.00
2022-08-22T02:19:58.202Z,100.00
2022-08-22T02:23:03.268Z,100.00
2022-08-22T02:25:46.307Z,100.00
2022-08-22T02:28:19.869Z,100.00
2022-08-22T02:30:52.183Z,100.00
2022-08-22T02:33:32.547Z,100.00
2022-08-22T02:36:18.455Z,100.00
2022-08-22T02:39:28.509Z,100.00
2022-08-22T02:42:03.508Z,100.00
2022-08-22T02:44:41.932Z,100.00
2022-08-22T02:47:31.220Z,100.00
2022-08-22T02:50:05.769Z,100.00
2022-08-22T02:52:46.754Z,100.00
2022-08-22T02:55:19.940Z,100.00
2022-08-22T02:58:01.069Z,100.00
2022-08-22T03:00:44.108Z,100.00
2022-08-22T03:03:24.926Z,100.00
2022-08-22T03:06:33.290Z,100.00
2022-08-22T03:09:08.008Z,100.00
2022-08-22T03:11:39.422Z,100.00
2022-08-22T03:14:13.904Z,100.00
2022-08-22T03:16:46.211Z,100.00
2022-08-22T03:19:19.369Z,100.00
2022-08-22T03:22:13.695Z,100.00
2022-08-22T03:24:55.502Z,100.00
2022-08-22T03:27:32.859Z,100.00
2022-08-22T03:30:12.277Z,100.00
2022-08-22T03:32:50.940Z,100.00
2022-08-22T03:35:44.020Z,100.00
2022-08-22T03:38:45.815Z,100.00
2022-08-22T03:41:42.343Z,100.00
2022-08-22T03:44:42.746Z,100.00
2022-08-22T03:47:50.330Z,100.00
2022-08-22T03:50:35.878Z,100.00
2022-08-22T03:53:31.428Z,100.00
2022-08-22T03:56:09.987Z,100.00
2022-08-22T03:58:54.779Z,100.00
2022-08-22T04:01:57.883Z,100.00
2022-08-22T04:05:02.516Z,100.00
2022-08-22T04:08:06.536Z,100.00
2022-08-22T04:10:51.593Z,100.00
2022-08-22T04:13:40.812Z,100.00
2022-08-22T04:16:44.697Z,100.00
2022-08-22T04:19:48.671Z,100.00
2022-08-22T04:23:01.576Z,100.00
2022-08-22T04:25:36.376Z,100.00
2022-08-22T04:28:15.364Z,100.00
2022-08-22T04:31:10.183Z,100.00
2022-08-22T04:33:56.615Z,100.00
2022-08-22T04:36:45.974Z,100.00
2022-08-22T04:39:21.797Z,100.00
2022-08-22T04:42:31.251Z,100.00
2022-08-22T04:45:02.407Z,100.00
2022-08-22T04:47:36.819Z,100.00
2022-08-22T04:50:28.332Z,100.00
2022-08-22T04:52:59.429Z,100.00
2022-08-22T04:55:32.442Z,100.00
2022-08-22T04:58:13.495Z,100.00
2022-08-22T05:00:54.802Z,100.00
2022-08-22T05:03:25.636Z,100.00
2022-08-22T05:05:55.625Z,100.00
2022-08-22T05:08:26.568Z,100.00
2022-08-22T05:10:54.488Z,100.00
2022-08-22T05:13:30.597Z,100.00
2022-08-22T05:16:03.021Z,100.00
2022-08-22T05:18:37.665Z,100.00
2022-08-22T05:21:08.806Z,100.00
2022-08-22T05:23:42.965Z,100.00
2022-08-22T05:26:13.516Z,100.00
2022-08-22T05:28:57.876Z,100.00
2022-08-22T05:31:35.046Z,100.00
2022-08-22T05:34:11.225Z,100.00
2022-08-22T05:36:46.275Z,100.00
2022-08-22T05:39:25.424Z,100.00
2022-08-22T05:41:55.118Z,100.00
2022-08-22T05:44:28.256Z,100.00
2022-08-22T05:47:07.572Z,100.00
2022-08-22T05:49:44.982Z,100.00
2022-08-22T05:52:41.784Z,100.00
2022-08-22T05:55:25.010Z,100.00
2022-08-22T05:58:02.905Z,100.00
2022-08-22T06:00:37.076Z,100.00
2022-08-22T06:03:09.614Z,100.00
2022-08-22T06:05:41.869Z,100.00
2022-08-22T06:08:20.223Z,100.00
2022-08-22T06:10:56.863Z,100.00
2022-08-22T06:13:52.905Z,100.00
2022-08-22T06:16:30.602Z,100.00
2022-08-22T06:18:57.981Z,100.00
2022-08-22T06:21:38.533Z,100.00
2022-08-22T06:24:09.829Z,100.00
2022-08-22T06:26:39.984Z,100.00
2022-08-22T06:29:08.506Z,100.00
2022-08-22T06:31:42.105Z,100.00
2022-08-22T06:34:16.428Z,100.00
2022-08-22T06:36:49.636Z,100.00
2022-08-22T06:39:31.117Z,100.00
2022-08-22T06:42:01.030Z,100.00
2022-08-22T06:44:31.865Z,100.00
2022-08-22T06:47:01.159Z,100.00
2022-08-22T06:49:30.253Z,100.00
2022-08-22T06:52:01.755Z,100.00
2022-08-22T06:54:34.270Z,100.00
2022-08-22T06:57:03.523Z,100.00
2022-08-22T06:59:33.009Z,100.00
2022-08-22T07:02:09.608Z,100.00
2022-08-22T07:04:37.207Z,100.00
2022-08-22T07:07:03.835Z,100.00
2022-08-22T07:09:38.934Z,100.00
2022-08-22T07:12:14.020Z,100.00
2022-08-22T07:14:44.417Z,100.00
2022-08-22T07:17:46.442Z,100.00
2022-08-22T07:20:24.171Z,100.00
2022-08-22T07:23:03.454Z,100.00
2022-08-22T07:25:31.663Z,100.00
2022-08-22T07:27:58.162Z,100.00
2022-08-22T07:30:28.978Z,100.00
2022-08-22T07:33:25.202Z,100.00
2022-08-22T07:35:55.381Z,100.00
2022-08-22T07:38:45.261Z,100.00
2022-08-22T07:41:29.548Z,100.00
2022-08-22T07:44:05.088Z,100.00
2022-08-22T07:49:49.710Z,100.00
2022-08-22T07:52:17.275Z,100.00
2022-08-22T07:54:50.203Z,100.00
2022-08-22T07:57:34.974Z,100.00
2022-08-22T08:00:10.928Z,100.00
2022-08-22T08:02:45.303Z,100.00
2022-08-22T08:05:14.295Z,100.00
2022-08-22T08:07:45.351Z,100.00
2022-08-22T08:10:17.655Z,100.00
2022-08-22T08:12:57.984Z,100.00
2022-08-22T08:15:32.923Z,100.00
2022-08-22T08:18:05.365Z,100.00
2022-08-22T08:20:35.499Z,100.00
2022-08-22T08:23:09.218Z,100.00
2022-08-22T08:26:10.438Z,100.00
2022-08-22T08:28:49.828Z,100.00
2022-08-22T08:31:35.402Z,100.00
2022-08-22T08:34:12.286Z,100.00
2022-08-22T08:37:12.854Z,100.00
2022-08-22T08:39:48.428Z,100.00
2022-08-22T08:43:10.811Z,100.00
2022-08-22T08:45:50.100Z,100.00
2022-08-22T08:48:26.137Z,100.00
2022-08-22T08:51:14.548Z,100.00
2022-08-22T08:54:16.023Z,100.00
2022-08-22T08:57:04.415Z,100.00
2022-08-22T08:59:56.181Z,100.00
2022-08-22T09:02:47.755Z,100.00
2022-08-22T09:05:29.876Z,100.00
2022-08-22T09:08:34.795Z,100.00
2022-08-22T09:11:30.153Z,100.00
2022-08-22T09:14:02.449Z,100.00
2022-08-22T09:16:29.744Z,100.00
2022-08-22T09:18:59.159Z,100.00
2022-08-22T09:22:01.526Z,100.00
2022-08-22T09:24:46.899Z,100.00
2022-08-22T09:27:18.413Z,100.00
2022-08-22T09:29:59.960Z,100.00
2022-08-22T09:32:38.404Z,100.00
2022-08-22T09:35:11.589Z,100.00
2022-08-22T09:37:44.003Z,99.21
2022-08-22T09:40:25.186Z,99.08
2022-08-22T09:43:06.452Z,100.00
2022-08-22T09:45:38.111Z,100.00
2022-08-22T09:48:26.655Z,100.00
2022-08-22T09:51:31.856Z,100.00
2022-08-22T09:54:11.702Z,100.00
2022-08-22T09:56:48.433Z,93.33
2022-08-22T09:59:38.973Z,100.00
2022-08-22T10:02:24.124Z,98.50
2022-08-22T10:05:07.251Z,100.00
2022-08-22T10:07:58.567Z,94.84
2022-08-22T10:10:31.127Z,75.40
2022-08-22T10:13:03.335Z,75.41
2022-08-22T10:15:42.030Z,100.00
2022-08-22T10:18:33.415Z,70.80
2022-08-22T10:21:11.807Z,77.73
2022-08-22T10:23:48.503Z,85.33
2022-08-22T10:26:43.482Z,94.46
2022-08-22T10:29:31.991Z,84.69
2022-08-22T10:32:27.395Z,87.48
2022-08-22T10:34:59.313Z,99.65
2022-08-22T10:37:32.475Z,99.40
2022-08-22T10:40:11.100Z,83.44
2022-08-22T10:42:51.644Z,77.25
2022-08-22T10:45:36.598Z,99.24
2022-08-22T10:48:08.022Z,65.80
2022-08-22T10:50:44.757Z,80.50
2022-08-22T10:53:33.451Z,77.77
2022-08-22T10:56:13.314Z,76.27
2022-08-22T10:59:19.489Z,94.89
2022-08-22T11:02:08.206Z,89.81
2022-08-22T11:04:40.929Z,85.08
2022-08-22T11:07:39.666Z,98.88
2022-08-22T11:10:45.116Z,73.70
2022-08-22T11:13:25.368Z,82.04
2022-08-22T11:16:06.916Z,94.28
2022-08-22T11:19:02.731Z,75.70
2022-08-22T11:22:06.828Z,89.15
2022-08-22T11:25:07.358Z,91.58
2022-08-22T11:28:04.937Z,72.83
2022-08-22T11:30:57.742Z,100.00
2022-08-22T11:33:39.107Z,100.00
2022-08-22T11:36:31.045Z,86.18
2022-08-22T11:39:09.954Z,66.75
2022-08-22T11:41:45.373Z,66.83
2022-08-22T11:44:31.319Z,100.00
2022-08-22T11:47:01.671Z,82.83
2022-08-22T11:49:43.427Z,65.82
2022-08-22T11:52:29.168Z,92.16
2022-08-22T11:55:32.539Z,86.79
2022-08-22T11:58:27.248Z,79.53
2022-08-22T12:01:17.030Z,64.50
2022-08-22T12:03:58.195Z,76.66
2022-08-22T12:06:37.301Z,88.77
2022-08-22T12:09:17.939Z,93.02
2022-08-22T12:12:08.427Z,82.01
2022-08-22T12:14:54.707Z,67.50
2022-08-22T12:17:55.451Z,69.43
2022-08-22T12:20:25.979Z,64.46
2022-08-22T12:23:21.828Z,95.00
2022-08-22T12:26:43.748Z,72.94
2022-08-22T12:29:33.808Z,70.73
2022-08-22T12:32:01.568Z,63.13
2022-08-22T12:34:34.645Z,65.48
2022-08-22T12:37:10.059Z,65.31
2022-08-22T12:40:10.026Z,79.76
2022-08-22T12:42:49.327Z,74.17
2022-08-22T12:45:26.738Z,81.88
2022-08-22T12:47:53.288Z,83.96
2022-08-22T12:50:44.479Z,65.96
2022-08-22T12:53:20.622Z,93.23
2022-08-22T12:56:06.204Z,97.02
2022-08-22T12:59:05.916Z,85.63
2022-08-22T13:01:43.194Z,72.06
2022-08-22T13:04:32.479Z,66.52
2022-08-22T13:07:02.966Z,63.50
2022-08-22T13:09:33.855Z,74.10
2022-08-22T13:12:21.110Z,61.17
2022-08-22T13:14:51.295Z,67.00
2022-08-22T13:17:24.588Z,65.43
2022-08-22T13:19:54.738Z,65.82
2022-08-22T13:22:27.378Z,68.48
2022-08-22T13:25:05.634Z,73.62
2022-08-22T13:27:51.045Z,78.81
2022-08-22T13:30:27.779Z,76.45
2022-08-22T13:33:02.775Z,81.08
2022-08-22T13:35:35.762Z,65.47
2022-08-22T13:38:13.291Z,87.92
2022-08-22T13:40:45.519Z,66.10
2022-08-22T13:43:19.519Z,63.96
2022-08-22T13:45:55.781Z,84.47
2022-08-22T13:48:28.465Z,63.84
2022-08-22T13:51:08.649Z,62.90
2022-08-22T13:53:50.429Z,70.50
2022-08-22T13:56:47.116Z,65.66
2022-08-22T13:59:50.100Z,60.50
2022-08-22T14:02:43.277Z,90.11
2022-08-22T14:05:16.725Z,66.62
2022-08-22T14:08:12.872Z,71.30
2022-08-22T14:10:46.466Z,76.94
2022-08-22T14:13:24.911Z,63.46
2022-08-22T14:16:12.083Z,69.59
2022-08-22T14:18:49.334Z,57.76
2022-08-22T14:21:41.302Z,79.26
2022-08-22T14:24:25.805Z,69.71
2022-08-22T14:26:58.426Z,60.80
2022-08-22T14:29:31.719Z,80.31
2022-08-22T14:32:49.222Z,59.10
2022-08-22T14:35:35.297Z,76.45
2022-08-22T14:38:30.245Z,65.94
2022-08-22T14:41:17.327Z,90.03
2022-08-22T14:43:58.285Z,69.26
2022-08-22T14:46:33.481Z,61.71
2022-08-22T14:49:03.081Z,78.19
2022-08-22T14:51:30.079Z,62.14
2022-08-22T14:54:21.272Z,57.73
2022-08-22T14:56:51.142Z,59.87
2022-08-22T14:59:52.501Z,71.07
2022-08-22T15:02:21.810Z,61.20
2022-08-22T15:04:54.044Z,56.60
2022-08-22T15:07:29.199Z,68.76
2022-08-22T15:10:20.810Z,85.40
2022-08-22T15:12:53.748Z,59.95
2022-08-22T15:15:49.582Z,58.36
2022-08-22T15:18:34.224Z,59.77
2022-08-22T15:21:11.332Z,62.83
2022-08-22T15:23:44.801Z,58.39
2022-08-22T15:26:32.812Z,94.04
2022-08-22T15:29:07.800Z,97.72
2022-08-22T15:31:36.511Z,88.56
2022-08-22T15:34:24.399Z,91.87
2022-08-22T15:37:07.877Z,85.22
2022-08-22T15:40:16.811Z,72.07
2022-08-22T15:42:50.612Z,71.10
2022-08-22T15:45:30.884Z,97.11
2022-08-22T15:48:04.521Z,89.67
2022-08-22T15:51:04.784Z,99.58
2022-08-22T15:53:44.816Z,86.15
2022-08-22T15:56:11.333Z,88.22
2022-08-22T15:58:48.724Z,86.35
2022-08-22T16:01:19.155Z,96.13
2022-08-22T16:04:06.764Z,97.40
2022-08-22T16:06:50.593Z,65.92
2022-08-22T16:09:46.179Z,80.10
2022-08-22T16:12:37.221Z,90.11
2022-08-22T16:15:05.764Z,91.15
2022-08-22T16:17:42.642Z,84.19
2022-08-22T16:20:09.957Z,71.29
2022-08-22T16:22:55.925Z,66.17
2022-08-22T16:25:50.206Z,89.80
2022-08-22T16:28:57.722Z,86.92
2022-08-22T16:31:37.045Z,74.67
2022-08-22T16:34:16.146Z,73.41
2022-08-22T16:36:42.751Z,82.14
2022-08-22T16:39:21.554Z,68.12
2022-08-22T16:41:54.399Z,84.78
2022-08-22T16:44:29.842Z,87.18
2022-08-22T16:47:17.702Z,64.30
2022-08-22T16:49:50.273Z,70.72
2022-08-22T16:52:26.070Z,79.34
2022-08-22T16:55:05.811Z,66.15
2022-08-22T16:58:06.871Z,72.88
2022-08-22T17:00:36.431Z,87.98
2022-08-22T17:03:30.184Z,64.17
2022-08-22T17:06:34.396Z,82.61
2022-08-22T17:09:19.454Z,81.13
2022-08-22T17:12:11.596Z,94.98
2022-08-22T17:15:20.875Z,89.14
2022-08-22T17:18:01.682Z,100.00
2022-08-22T17:20:38.496Z,77.83
2022-08-22T17:23:23.531Z,65.62
2022-08-22T17:26:07.619Z,91.06
2022-08-22T17:28:52.145Z,66.43
2022-08-22T17:31:36.968Z,100.00
2022-08-22T17:34:14.226Z,100.00
2022-08-22T17:36:56.047Z,95.63
2022-08-22T17:39:59.929Z,98.56
2022-08-22T17:42:29.541Z,96.25
2022-08-22T17:45:03.384Z,100.00
2022-08-22T17:47:59.359Z,78.12
2022-08-22T17:50:47.276Z,93.73
2022-08-22T17:53:28.593Z,93.06
2022-08-22T17:56:13.678Z,100.00
2022-08-22T17:58:53.468Z,92.88
2022-08-22T18:01:48.656Z,100.00
2022-08-22T18:04:43.286Z,100.00
2022-08-22T18:07:15.222Z,90.70
2022-08-22T18:09:50.522Z,100.00
2022-08-22T18:12:35.785Z,100.00
2022-08-22T18:15:09.156Z,88.44
2022-08-22T18:17:42.552Z,100.00
2022-08-22T18:20:24.735Z,100.00
2022-08-22T18:23:00.827Z,100.00
2022-08-22T18:26:02.260Z,100.00
2022-08-22T18:28:50.675Z,85.52
2022-08-22T18:31:54.022Z,97.81
2022-08-22T18:34:42.255Z,100.00
2022-08-22T18:37:30.804Z,100.00
2022-08-22T18:40:03.154Z,100.00
2022-08-22T18:42:32.800Z,100.00
2022-08-22T18:44:59.382Z,86.91
2022-08-22T18:47:33.023Z,100.00
2022-08-22T18:50:22.686Z,100.00
2022-08-22T18:52:51.236Z,100.00
2022-08-22T18:55:27.411Z,94.38
2022-08-22T18:58:18.858Z,100.00
2022-08-22T19:00:52.645Z,100.00
2022-08-22T19:03:28.981Z,100.00
2022-08-22T19:06:21.722Z,100.00
2022-08-22T19:09:12.871Z,100.00
2022-08-22T19:12:01.791Z,100.00
2022-08-22T19:14:55.968Z,100.00
2022-08-22T19:17:43.831Z,100.00
2022-08-22T19:20:55.427Z,89.78
2022-08-22T19:23:34.123Z,100.00
2022-08-22T19:26:25.979Z,97.12
2022-08-22T19:29:18.717Z,100.00
2022-08-22T19:31:48.285Z,100.00
2022-08-22T19:34:25.700Z,100.00
2022-08-22T19:37:32.972Z,100.00
2022-08-22T19:40:05.698Z,100.00
2022-08-22T19:42:36.388Z,100.00
2022-08-22T19:45:29.050Z,100.00
2022-08-22T19:48:14.078Z,100.00
2022-08-22T19:50:42.903Z,100.00
2022-08-22T19:53:09.727Z,100.00
2022-08-22T19:55:36.716Z,100.00
2022-08-22T19:58:31.934Z,100.00
2022-08-22T20:01:21.101Z,100.00
2022-08-22T20:03:57.832Z,100.00
2022-08-22T20:06:44.608Z,100.00
2022-08-22T20:09:50.129Z,93.31
2022-08-22T20:12:42.807Z,100.00
2022-08-22T20:15:20.352Z,100.00
2022-08-22T20:18:11.619Z,100.00
2022-08-22T20:20:38.571Z,100.00
2022-08-22T20:23:11.029Z,100.00
2022-08-22T20:25:52.795Z,100.00
2022-08-22T20:28:40.488Z,100.00
2022-08-22T20:31:12.336Z,100.00
2022-08-22T20:33:43.853Z,100.00
2022-08-22T20:36:28.584Z,100.00
2022-08-22T20:39:02.945Z,100.00
2022-08-22T20:41:40.559Z,100.00
2022-08-22T20:44:16.558Z,100.00
2022-08-22T20:46:46.093Z,100.00
2022-08-22T20:49:23.618Z,100.00
2022-08-22T20:51:57.390Z,100.00
2022-08-22T20:54:27.474Z,100.00
2022-08-22T20:56:56.974Z,100.00
2022-08-22T20:59:37.547Z,100.00
2022-08-22T21:02:19.812Z,100.00
2022-08-22T21:04:57.727Z,100.00
2022-08-22T21:07:40.559Z,100.00
2022-08-22T21:10:40.123Z,100.00
2022-08-22T21:13:22.311Z,100.00
2022-08-22T21:16:02.488Z,100.00
2022-08-22T21:18:33.512Z,100.00
2022-08-22T21:21:10.499Z,100.00
2022-08-22T21:23:49.393Z,100.00
2022-08-22T21:26:24.369Z,100.00
2022-08-22T21:28:50.878Z,100.00
2022-08-22T21:31:21.948Z,100.00
2022-08-22T21:33:50.445Z,100.00
2022-08-22T21:36:21.741Z,100.00
2022-08-22T21:38:59.047Z,100.00
2022-08-22T21:41:27.076Z,100.00
2022-08-22T21:43:54.258Z,100.00
2022-08-22T21:46:26.529Z,100.00
2022-08-22T21:49:03.716Z,100.00
2022-08-22T21:51:36.316Z,100.00
2022-08-22T21:54:24.503Z,100.00
2022-08-22T21:56:53.467Z,100.00
2022-08-22T21:59:51.066Z,100.00
2022-08-22T22:02:40.236Z,100.00
2022-08-22T22:05:17.772Z,100.00
2022-08-22T22:07:46.426Z,100.00
2022-08-22T22:10:16.215Z,100.00
2022-08-22T22:12:44.938Z,100.00
2022-08-22T22:15:15.796Z,100.00
2022-08-22T22:17:43.268Z,100.00
2022-08-22T22:20:11.163Z,100.00
2022-08-22T22:22:46.073Z,100.00
2022-08-22T22:25:40.156Z,100.00
2022-08-22T22:28:05.385Z,100.00
2022-08-22T22:30:32.068Z,100.00
2022-08-22T22:32:58.708Z,100.00
2022-08-22T22:35:25.572Z,100.00
2022-08-22T22:37:52.306Z,100.00
2022-08-22T22:40:19.174Z,100.00
2022-08-22T22:42:45.867Z,100.00
2022-08-22T22:45:12.507Z,100.00
2022-08-22T22:47:39.223Z,100.00
2022-08-22T22:50:06.907Z,100.00
2022-08-22T22:52:33.597Z,100.00
2022-08-22T22:55:05.767Z,100.00
2022-08-22T22:57:32.462Z,100.00
2022-08-22T23:00:10.850Z,100.00
2022-08-22T23:02:37.444Z,100.00
2022-08-22T23:05:04.944Z,100.00
2022-08-22T23:07:33.752Z,100.00
2022-08-22T23:10:01.302Z,100.00
2022-08-22T23:12:28.296Z,100.00
2022-08-22T23:14:54.929Z,100.00
2022-08-22T23:17:21.524Z,100.00
2022-08-22T23:19:48.382Z,100.00
2022-08-22T23:22:14.981Z,100.00
2022-08-22T23:24:41.664Z,100.00
2022-08-22T23:27:10.135Z,100.00
2022-08-22T23:29:40.890Z,100.00
2022-08-22T23:32:09.184Z,100.00
2022-08-22T23:34:42.569Z,100.00
2022-08-22T23:37:11.617Z,100.00
2022-08-22T23:39:38.381Z,100.00
2022-08-22T23:42:07.252Z,100.00
2022-08-22T23:44:36.187Z,100.00
2022-08-22T23:47:04.542Z,100.00
2022-08-22T23:49:32.306Z,100.00
2022-08-22T23:51:59.627Z,100.00
2022-08-22T23:54:27.194Z,100.00
2022-08-22T23:56:57.616Z,100.00
2022-08-22T23:59:30.671Z,100.00
